sensor_id;sensor_type;location;lat;lon;timestamp;temperature;humidity
25170;DHT22;13129;48.012;10.352;2023-06-05T03:30:44;9.50;99.90
25170;DHT22;13129;48.012;10.352;2023-06-05T03:33:10;9.60;99.90
25170;DHT22;13129;48.012;10.352;2023-06-05T03:35:36;9.50;99.90
25170;DHT22;13129;48.012;10.352;2023-06-05T03:38:02;9.60;99.90
25170;DHT22;13129;48.012;10.352;2023-06-05T03:40:28;9.60;99.90
25170;DHT22;13129;48.012;10.352;2023-06-05T03:42:55;9.70;99.90
25170;DHT22;13129;48.012;10.352;2023-06-05T03:45:20;9.70;99.90
25170;DHT22;13129;48.012;10.352;2023-06-05T03:47:47;9.70;99.90
25170;DHT22;13129;48.012;10.352;2023-06-05T03:50:14;9.70;99.90
25170;DHT22;13129;48.012;10.352;2023-06-05T03:52:41;9.70;99.90
25170;DHT22;13129;48.012;10.352;2023-06-05T03:55:08;9.70;99.90
25170;DHT22;13129;48.012;10.352;2023-06-05T03:57:35;9.70;99.90
25170;DHT22;13129;48.012;10.352;2023-06-05T04:00:06;9.80;99.90
25170;DHT22;13129;48.012;10.352;2023-06-05T04:02:35;9.90;99.90
25170;DHT22;13129;48.012;10.352;2023-06-05T04:05:02;9.90;99.90
25170;DHT22;13129;48.012;10.352;2023-06-05T04:07:29;10.00;99.90
25170;DHT22;13129;48.012;10.352;2023-06-05T04:09:55;10.00;99.90
25170;DHT22;13129;48.012;10.352;2023-06-05T04:12:20;10.00;99.90
25170;DHT22;13129;48.012;10.352;2023-06-05T04:14:46;10.00;99.90
25170;DHT22;13129;48.012;10.352;2023-06-05T04:17:12;10.10;99.90
25170;DHT22;13129;48.012;10.352;2023-06-05T04:19:39;10.00;99.90
25170;DHT22;13129;48.012;10.352;2023-06-05T04:22:05;10.10;99.90
25170;DHT22;13129;48.012;10.352;2023-06-05T04:24:31;10.10;99.90
25170;DHT22;13129;48.012;10.352;2023-06-05T04:26:57;10.20;99.90
25170;DHT22;13129;48.012;10.352;2023-06-05T04:29:26;10.30;99.90
25170;DHT22;13129;48.012;10.352;2023-06-05T04:31:52;10.40;99.90
25170;DHT22;13129;48.012;10.352;2023-06-05T04:34:18;10.60;99.90
25170;DHT22;13129;48.012;10.352;2023-06-05T04:36:45;10.80;99.90
25170;DHT22;13129;48.012;10.352;2023-06-05T04:39:12;11.00;99.90
25170;DHT22;13129;48.012;10.352;2023-06-05T04:41:41;11.20;99.90
25170;DHT22;13129;48.012;10.352;2023-06-05T04:44:11;11.40;99.90
25170;DHT22;13129;48.012;10.352;2023-06-05T04:46:38;11.60;99.90
25170;DHT22;13129;48.012;10.352;2023-06-05T04:49:09;11.70;99.90
25170;DHT22;13129;48.012;10.352;2023-06-05T04:51:35;11.90;99.90
25170;DHT22;13129;48.012;10.352;2023-06-05T04:54:02;12.20;99.90
25170;DHT22;13129;48.012;10.352;2023-06-05T04:56:28;12.50;99.90
25170;DHT22;13129;48.012;10.352;2023-06-05T04:58:53;12.80;99.90
25170;DHT22;13129;48.012;10.352;2023-06-05T05:01:19;13.00;99.90
25170;DHT22;13129;48.012;10.352;2023-06-05T05:03:45;13.10;99.90
25170;DHT22;13129;48.012;10.352;2023-06-05T05:06:15;12.90;99.90
25170;DHT22;13129;48.012;10.352;2023-06-05T05:08:42;12.80;99.90
25170;DHT22;13129;48.012;10.352;2023-06-05T05:11:08;12.90;99.90
25170;DHT22;13129;48.012;10.352;2023-06-05T05:13:34;12.90;99.90
25170;DHT22;13129;48.012;10.352;2023-06-05T05:16:00;13.00;99.90
25170;DHT22;13129;48.012;10.352;2023-06-05T05:18:25;13.10;99.90
25170;DHT22;13129;48.012;10.352;2023-06-05T05:20:53;13.40;99.90
25170;DHT22;13129;48.012;10.352;2023-06-05T05:23:19;13.70;99.90
25170;DHT22;13129;48.012;10.352;2023-06-05T05:25:46;14.20;99.90
25170;DHT22;13129;48.012;10.352;2023-06-05T05:28:13;15.00;99.90
25170;DHT22;13129;48.012;10.352;2023-06-05T05:30:38;16.40;99.90
25170;DHT22;13129;48.012;10.352;2023-06-05T05:33:04;17.90;99.90
25170;DHT22;13129;48.012;10.352;2023-06-05T05:35:30;19.50;99.90
25170;DHT22;13129;48.012;10.352;2023-06-05T05:37:56;20.90;99.90
25170;DHT22;13129;48.012;10.352;2023-06-05T05:40:22;22.00;99.00
25170;DHT22;13129;48.012;10.352;2023-06-05T05:42:48;22.90;95.80
25170;DHT22;13129;48.012;10.352;2023-06-05T05:45:13;23.70;93.30
25170;DHT22;13129;48.012;10.352;2023-06-05T05:47:39;24.80;91.30
25170;DHT22;13129;48.012;10.352;2023-06-05T05:50:06;25.80;85.20
25170;DHT22;13129;48.012;10.352;2023-06-05T05:52:32;26.50;80.80
25170;DHT22;13129;48.012;10.352;2023-06-05T05:54:58;27.10;74.60
25170;DHT22;13129;48.012;10.352;2023-06-05T05:57:25;27.60;71.20
25170;DHT22;13129;48.012;10.352;2023-06-05T05:59:51;27.50;68.70
25170;DHT22;13129;48.012;10.352;2023-06-05T06:05:29;26.30;70.00
25170;DHT22;13129;48.012;10.352;2023-06-05T06:07:55;25.90;70.90
25170;DHT22;13129;48.012;10.352;2023-06-05T06:10:21;25.90;71.50
25170;DHT22;13129;48.012;10.352;2023-06-05T06:12:47;26.10;71.10
25170;DHT22;13129;48.012;10.352;2023-06-05T06:15:13;26.90;70.80
25170;DHT22;13129;48.012;10.352;2023-06-05T06:17:39;27.60;69.10
25170;DHT22;13129;48.012;10.352;2023-06-05T06:20:06;28.10;67.00
25170;DHT22;13129;48.012;10.352;2023-06-05T06:22:34;28.10;66.20
25170;DHT22;13129;48.012;10.352;2023-06-05T06:25:00;27.80;67.00
25170;DHT22;13129;48.012;10.352;2023-06-05T06:27:26;27.70;66.00
25170;DHT22;13129;48.012;10.352;2023-06-05T06:29:52;28.10;65.00
25170;DHT22;13129;48.012;10.352;2023-06-05T06:32:19;28.30;65.40
25170;DHT22;13129;48.012;10.352;2023-06-05T06:34:45;28.50;65.10
25170;DHT22;13129;48.012;10.352;2023-06-05T06:37:14;29.30;63.70
25170;DHT22;13129;48.012;10.352;2023-06-05T06:39:43;30.10;60.70
25170;DHT22;13129;48.012;10.352;2023-06-05T06:42:10;30.60;59.10
25170;DHT22;13129;48.012;10.352;2023-06-05T06:44:37;30.60;58.80
25170;DHT22;13129;48.012;10.352;2023-06-05T06:47:03;31.10;58.00
25170;DHT22;13129;48.012;10.352;2023-06-05T06:49:28;31.40;57.30
25170;DHT22;13129;48.012;10.352;2023-06-05T06:51:54;31.60;57.20
25170;DHT22;13129;48.012;10.352;2023-06-05T06:54:20;31.30;56.60
25170;DHT22;13129;48.012;10.352;2023-06-05T06:56:47;31.60;57.00
25170;DHT22;13129;48.012;10.352;2023-06-05T06:59:13;31.70;56.60
25170;DHT22;13129;48.012;10.352;2023-06-05T07:01:44;31.50;55.90
25170;DHT22;13129;48.012;10.352;2023-06-05T07:04:16;31.50;56.00
25170;DHT22;13129;48.012;10.352;2023-06-05T07:06:45;31.10;55.30
25170;DHT22;13129;48.012;10.352;2023-06-05T07:09:11;31.40;55.80
25170;DHT22;13129;48.012;10.352;2023-06-05T07:11:38;31.70;55.80
25170;DHT22;13129;48.012;10.352;2023-06-05T07:14:04;32.40;54.70
25170;DHT22;13129;48.012;10.352;2023-06-05T07:16:29;32.40;53.90
25170;DHT22;13129;48.012;10.352;2023-06-05T07:18:55;32.20;55.20
25170;DHT22;13129;48.012;10.352;2023-06-05T07:21:21;32.20;54.00
25170;DHT22;13129;48.012;10.352;2023-06-05T07:23:48;32.60;54.20
25170;DHT22;13129;48.012;10.352;2023-06-05T07:26:17;33.10;53.50
25170;DHT22;13129;48.012;10.352;2023-06-05T07:28:43;33.10;53.00
25170;DHT22;13129;48.012;10.352;2023-06-05T07:31:09;33.20;53.40
25170;DHT22;13129;48.012;10.352;2023-06-05T07:33:35;33.20;52.20
25170;DHT22;13129;48.012;10.352;2023-06-05T07:36:01;33.70;52.50
25170;DHT22;13129;48.012;10.352;2023-06-05T07:38:27;33.40;52.00
25170;DHT22;13129;48.012;10.352;2023-06-05T07:40:53;33.60;52.20
25170;DHT22;13129;48.012;10.352;2023-06-05T07:43:18;33.40;51.90
25170;DHT22;13129;48.012;10.352;2023-06-05T07:45:44;33.80;51.70
25170;DHT22;13129;48.012;10.352;2023-06-05T07:48:09;33.60;51.00
25170;DHT22;13129;48.012;10.352;2023-06-05T07:50:35;33.20;51.50
25170;DHT22;13129;48.012;10.352;2023-06-05T07:53:01;33.30;51.20
25170;DHT22;13129;48.012;10.352;2023-06-05T07:55:27;33.80;51.80
25170;DHT22;13129;48.012;10.352;2023-06-05T07:57:54;34.10;51.90
25170;DHT22;13129;48.012;10.352;2023-06-05T08:00:20;34.60;52.10
25170;DHT22;13129;48.012;10.352;2023-06-05T08:02:46;35.10;52.00
25170;DHT22;13129;48.012;10.352;2023-06-05T08:05:15;35.50;50.10
25170;DHT22;13129;48.012;10.352;2023-06-05T08:07:42;35.90;50.50
25170;DHT22;13129;48.012;10.352;2023-06-05T08:10:08;35.90;49.60
25170;DHT22;13129;48.012;10.352;2023-06-05T08:12:34;35.90;49.60
25170;DHT22;13129;48.012;10.352;2023-06-05T08:15:00;36.00;49.50
25170;DHT22;13129;48.012;10.352;2023-06-05T08:17:27;36.00;49.40
25170;DHT22;13129;48.012;10.352;2023-06-05T08:19:53;36.20;48.80
25170;DHT22;13129;48.012;10.352;2023-06-05T08:22:18;36.30;48.90
25170;DHT22;13129;48.012;10.352;2023-06-05T08:24:44;36.70;48.90
25170;DHT22;13129;48.012;10.352;2023-06-05T08:27:10;36.80;47.30
25170;DHT22;13129;48.012;10.352;2023-06-05T08:29:35;36.40;47.20
25170;DHT22;13129;48.012;10.352;2023-06-05T08:32:04;36.20;47.10
25170;DHT22;13129;48.012;10.352;2023-06-05T08:34:31;36.20;48.20
25170;DHT22;13129;48.012;10.352;2023-06-05T08:36:57;36.30;48.00
25170;DHT22;13129;48.012;10.352;2023-06-05T08:39:24;36.40;46.50
25170;DHT22;13129;48.012;10.352;2023-06-05T08:41:53;35.20;46.50
25170;DHT22;13129;48.012;10.352;2023-06-05T08:44:28;33.70;48.50
25170;DHT22;13129;48.012;10.352;2023-06-05T08:47:03;33.30;49.60
25170;DHT22;13129;48.012;10.352;2023-06-05T08:49:29;33.70;49.50
25170;DHT22;13129;48.012;10.352;2023-06-05T08:52:02;34.20;49.40
25170;DHT22;13129;48.012;10.352;2023-06-05T08:54:32;35.10;49.50
25170;DHT22;13129;48.012;10.352;2023-06-05T08:57:00;35.00;48.40
25170;DHT22;13129;48.012;10.352;2023-06-05T08:59:28;34.70;48.00
25170;DHT22;13129;48.012;10.352;2023-06-05T09:01:54;34.40;48.50
25170;DHT22;13129;48.012;10.352;2023-06-05T09:04:21;34.60;48.60
25170;DHT22;13129;48.012;10.352;2023-06-05T09:06:47;34.30;47.00
25170;DHT22;13129;48.012;10.352;2023-06-05T09:09:14;34.40;48.00
25170;DHT22;13129;48.012;10.352;2023-06-05T09:11:40;34.60;47.20
25170;DHT22;13129;48.012;10.352;2023-06-05T09:14:06;34.70;47.20
25170;DHT22;13129;48.012;10.352;2023-06-05T09:16:40;34.60;46.50
25170;DHT22;13129;48.012;10.352;2023-06-05T09:19:08;33.60;47.90
25170;DHT22;13129;48.012;10.352;2023-06-05T09:21:35;33.30;47.70
25170;DHT22;13129;48.012;10.352;2023-06-05T09:24:20;33.10;47.60
25170;DHT22;13129;48.012;10.352;2023-06-05T09:29:24;33.30;47.70
25170;DHT22;13129;48.012;10.352;2023-06-05T09:31:51;32.10;49.10
25170;DHT22;13129;48.012;10.352;2023-06-05T09:34:33;30.30;51.00
25170;DHT22;13129;48.012;10.352;2023-06-05T09:37:01;28.70;53.80
25170;DHT22;13129;48.012;10.352;2023-06-05T09:39:30;27.30;56.10
25170;DHT22;13129;48.012;10.352;2023-06-05T09:41:57;26.70;56.80
25170;DHT22;13129;48.012;10.352;2023-06-05T09:44:24;26.40;58.30
25170;DHT22;13129;48.012;10.352;2023-06-05T09:46:51;26.60;59.00
25170;DHT22;13129;48.012;10.352;2023-06-05T09:49:32;27.20;59.00
25170;DHT22;13129;48.012;10.352;2023-06-05T09:51:59;28.30;57.40
25170;DHT22;13129;48.012;10.352;2023-06-05T09:54:27;29.50;55.40
25170;DHT22;13129;48.012;10.352;2023-06-05T09:57:06;31.20;53.90
25170;DHT22;13129;48.012;10.352;2023-06-05T09:59:35;33.10;51.90
25170;DHT22;13129;48.012;10.352;2023-06-05T10:02:06;33.60;49.70
25170;DHT22;13129;48.012;10.352;2023-06-05T10:04:49;32.50;49.70
25170;DHT22;13129;48.012;10.352;2023-06-05T10:07:17;31.80;48.80
25170;DHT22;13129;48.012;10.352;2023-06-05T10:09:44;31.70;49.80
25170;DHT22;13129;48.012;10.352;2023-06-05T10:12:14;31.50;49.70
25170;DHT22;13129;48.012;10.352;2023-06-05T10:14:42;31.70;49.20
25170;DHT22;13129;48.012;10.352;2023-06-05T10:17:09;31.70;48.80
25170;DHT22;13129;48.012;10.352;2023-06-05T10:19:35;30.60;49.60
25170;DHT22;13129;48.012;10.352;2023-06-05T10:22:02;29.60;51.10
25170;DHT22;13129;48.012;10.352;2023-06-05T10:24:34;28.50;53.30
25170;DHT22;13129;48.012;10.352;2023-06-05T10:27:34;28.00;55.10
25170;DHT22;13129;48.012;10.352;2023-06-05T10:31:06;28.30;57.10
25170;DHT22;13129;48.012;10.352;2023-06-05T10:33:35;28.50;55.10
25170;DHT22;13129;48.012;10.352;2023-06-05T10:38:50;28.30;55.40
25170;DHT22;13129;48.012;10.352;2023-06-05T10:41:17;28.50;55.80
25170;DHT22;13129;48.012;10.352;2023-06-05T10:43:51;28.60;56.10
25170;DHT22;13129;48.012;10.352;2023-06-05T10:56:53;28.90;57.10
25170;DHT22;13129;48.012;10.352;2023-06-05T10:59:20;29.00;56.40
25170;DHT22;13129;48.012;10.352;2023-06-05T11:15:12;28.20;51.70
25170;DHT22;13129;48.012;10.352;2023-06-05T11:17:45;28.30;52.90
25170;DHT22;13129;48.012;10.352;2023-06-05T11:27:49;28.00;55.10
25170;DHT22;13129;48.012;10.352;2023-06-05T11:30:21;28.20;55.10
25170;DHT22;13129;48.012;10.352;2023-06-05T11:32:48;28.50;54.00
25170;DHT22;13129;48.012;10.352;2023-06-05T11:35:20;28.60;53.40
25170;DHT22;13129;48.012;10.352;2023-06-05T11:37:46;28.30;54.50
25170;DHT22;13129;48.012;10.352;2023-06-05T11:40:24;28.10;55.60
25170;DHT22;13129;48.012;10.352;2023-06-05T11:42:50;28.00;55.60
25170;DHT22;13129;48.012;10.352;2023-06-05T11:45:16;27.60;55.90
25170;DHT22;13129;48.012;10.352;2023-06-05T11:47:42;27.60;55.90
25170;DHT22;13129;48.012;10.352;2023-06-05T11:50:12;27.60;55.90
25170;DHT22;13129;48.012;10.352;2023-06-05T11:52:39;27.60;55.90
25170;DHT22;13129;48.012;10.352;2023-06-05T11:55:15;27.50;55.90
25170;DHT22;13129;48.012;10.352;2023-06-05T11:57:47;27.60;55.70
25170;DHT22;13129;48.012;10.352;2023-06-05T12:00:15;27.50;56.40
25170;DHT22;13129;48.012;10.352;2023-06-05T12:02:47;27.50;55.10
25170;DHT22;13129;48.012;10.352;2023-06-05T12:05:15;27.40;53.90
25170;DHT22;13129;48.012;10.352;2023-06-05T12:07:41;26.90;54.70
25170;DHT22;13129;48.012;10.352;2023-06-05T12:10:08;26.20;56.30
25170;DHT22;13129;48.012;10.352;2023-06-05T12:12:35;26.00;57.40
25170;DHT22;13129;48.012;10.352;2023-06-05T12:15:20;26.20;57.40
25170;DHT22;13129;48.012;10.352;2023-06-05T12:17:50;26.20;56.70
25170;DHT22;13129;48.012;10.352;2023-06-05T12:20:17;26.30;57.00
25170;DHT22;13129;48.012;10.352;2023-06-05T12:22:43;26.70;57.10
25170;DHT22;13129;48.012;10.352;2023-06-05T12:25:22;26.90;56.40
25170;DHT22;13129;48.012;10.352;2023-06-05T12:27:50;27.00;56.60
25170;DHT22;13129;48.012;10.352;2023-06-05T12:30:18;26.90;56.30
25170;DHT22;13129;48.012;10.352;2023-06-05T12:32:45;26.50;56.00
25170;DHT22;13129;48.012;10.352;2023-06-05T12:35:21;26.40;56.70
25170;DHT22;13129;48.012;10.352;2023-06-05T12:37:48;26.40;56.80
25170;DHT22;13129;48.012;10.352;2023-06-05T12:40:14;26.40;57.10
25170;DHT22;13129;48.012;10.352;2023-06-05T12:42:43;26.00;57.70
25170;DHT22;13129;48.012;10.352;2023-06-05T12:45:09;26.00;57.70
25170;DHT22;13129;48.012;10.352;2023-06-05T12:47:37;26.00;58.50
25170;DHT22;13129;48.012;10.352;2023-06-05T12:50:04;26.10;57.80
25170;DHT22;13129;48.012;10.352;2023-06-05T12:52:31;26.20;58.00
25170;DHT22;13129;48.012;10.352;2023-06-05T12:54:57;26.30;57.30
25170;DHT22;13129;48.012;10.352;2023-06-05T12:57:23;26.30;56.40
25170;DHT22;13129;48.012;10.352;2023-06-05T12:59:51;26.30;57.40
25170;DHT22;13129;48.012;10.352;2023-06-05T13:02:17;26.30;56.30
25170;DHT22;13129;48.012;10.352;2023-06-05T13:04:43;26.20;55.30
25170;DHT22;13129;48.012;10.352;2023-06-05T13:07:08;26.40;55.30
25170;DHT22;13129;48.012;10.352;2023-06-05T13:09:37;26.10;55.30
25170;DHT22;13129;48.012;10.352;2023-06-05T13:12:03;25.60;56.00
25170;DHT22;13129;48.012;10.352;2023-06-05T13:14:32;25.10;56.70
25170;DHT22;13129;48.012;10.352;2023-06-05T13:16:59;24.90;57.60
25170;DHT22;13129;48.012;10.352;2023-06-05T13:19:24;25.00;57.40
25170;DHT22;13129;48.012;10.352;2023-06-05T13:21:51;25.20;57.60
25170;DHT22;13129;48.012;10.352;2023-06-05T13:24:17;25.40;57.20
25170;DHT22;13129;48.012;10.352;2023-06-05T13:26:43;25.60;56.60
25170;DHT22;13129;48.012;10.352;2023-06-05T13:29:10;25.80;55.90
25170;DHT22;13129;48.012;10.352;2023-06-05T13:31:36;25.90;55.90
25170;DHT22;13129;48.012;10.352;2023-06-05T13:34:02;25.50;55.20
25170;DHT22;13129;48.012;10.352;2023-06-05T13:36:27;25.10;56.00
25170;DHT22;13129;48.012;10.352;2023-06-05T13:38:54;25.20;56.50
25170;DHT22;13129;48.012;10.352;2023-06-05T13:41:20;25.30;56.60
25170;DHT22;13129;48.012;10.352;2023-06-05T13:43:53;25.50;56.60
25170;DHT22;13129;48.012;10.352;2023-06-05T13:46:21;25.40;57.30
25170;DHT22;13129;48.012;10.352;2023-06-05T13:48:50;25.40;57.00
25170;DHT22;13129;48.012;10.352;2023-06-05T13:51:16;25.50;57.00
25170;DHT22;13129;48.012;10.352;2023-06-05T13:53:54;25.50;56.90
25170;DHT22;13129;48.012;10.352;2023-06-05T13:56:25;25.70;57.00
25170;DHT22;13129;48.012;10.352;2023-06-05T13:58:52;25.70;57.40
25170;DHT22;13129;48.012;10.352;2023-06-05T14:01:21;25.40;56.80
25170;DHT22;13129;48.012;10.352;2023-06-05T14:03:47;24.90;56.40
25170;DHT22;13129;48.012;10.352;2023-06-05T14:06:13;24.70;55.40
25170;DHT22;13129;48.012;10.352;2023-06-05T14:08:39;24.90;55.50
25170;DHT22;13129;48.012;10.352;2023-06-05T14:11:05;25.00;54.60
25170;DHT22;13129;48.012;10.352;2023-06-05T14:13:30;25.10;55.00
25170;DHT22;13129;48.012;10.352;2023-06-05T14:15:56;25.20;55.10
25170;DHT22;13129;48.012;10.352;2023-06-05T14:18:24;25.50;55.20
25170;DHT22;13129;48.012;10.352;2023-06-05T14:20:50;25.50;55.10
25170;DHT22;13129;48.012;10.352;2023-06-05T14:23:16;25.50;55.30
25170;DHT22;13129;48.012;10.352;2023-06-05T14:25:43;25.50;55.20
25170;DHT22;13129;48.012;10.352;2023-06-05T14:28:08;25.40;55.50
25170;DHT22;13129;48.012;10.352;2023-06-05T14:30:35;25.50;55.60
25170;DHT22;13129;48.012;10.352;2023-06-05T14:33:01;25.50;54.50
25170;DHT22;13129;48.012;10.352;2023-06-05T14:35:28;25.50;53.60
25170;DHT22;13129;48.012;10.352;2023-06-05T14:37:54;25.30;52.80
25170;DHT22;13129;48.012;10.352;2023-06-05T14:40:21;25.10;53.90
25170;DHT22;13129;48.012;10.352;2023-06-05T14:42:49;24.90;55.20
25170;DHT22;13129;48.012;10.352;2023-06-05T14:45:16;24.60;55.90
25170;DHT22;13129;48.012;10.352;2023-06-05T14:47:42;24.50;57.20
25170;DHT22;13129;48.012;10.352;2023-06-05T14:50:11;24.60;56.90
25170;DHT22;13129;48.012;10.352;2023-06-05T14:52:37;24.50;55.50
25170;DHT22;13129;48.012;10.352;2023-06-05T14:55:03;24.40;55.90
25170;DHT22;13129;48.012;10.352;2023-06-05T14:57:28;24.20;56.30
25170;DHT22;13129;48.012;10.352;2023-06-05T14:59:54;23.90;56.80
25170;DHT22;13129;48.012;10.352;2023-06-05T15:02:21;23.60;57.90
25170;DHT22;13129;48.012;10.352;2023-06-05T15:04:48;23.40;58.30
25170;DHT22;13129;48.012;10.352;2023-06-05T15:07:18;23.30;58.50
25170;DHT22;13129;48.012;10.352;2023-06-05T15:09:45;23.30;58.70
25170;DHT22;13129;48.012;10.352;2023-06-05T15:12:11;23.60;58.90
25170;DHT22;13129;48.012;10.352;2023-06-05T15:14:37;23.80;58.40
25170;DHT22;13129;48.012;10.352;2023-06-05T15:17:03;24.10;57.70
25170;DHT22;13129;48.012;10.352;2023-06-05T15:19:28;24.20;57.30
25170;DHT22;13129;48.012;10.352;2023-06-05T15:21:54;24.20;56.90
25170;DHT22;13129;48.012;10.352;2023-06-05T15:24:20;24.20;57.10
25170;DHT22;13129;48.012;10.352;2023-06-05T15:26:45;24.20;58.00
25170;DHT22;13129;48.012;10.352;2023-06-05T15:29:11;24.20;58.10
25170;DHT22;13129;48.012;10.352;2023-06-05T15:31:42;24.10;58.90
25170;DHT22;13129;48.012;10.352;2023-06-05T15:34:12;24.00;58.70
25170;DHT22;13129;48.012;10.352;2023-06-05T15:36:38;23.90;58.90
25170;DHT22;13129;48.012;10.352;2023-06-05T15:39:04;23.80;58.80
25170;DHT22;13129;48.012;10.352;2023-06-05T15:41:30;23.60;59.20
25170;DHT22;13129;48.012;10.352;2023-06-05T15:43:56;23.50;59.00
25170;DHT22;13129;48.012;10.352;2023-06-05T15:46:23;23.40;58.80
25170;DHT22;13129;48.012;10.352;2023-06-05T15:48:49;23.30;58.70
25170;DHT22;13129;48.012;10.352;2023-06-05T15:51:16;23.20;58.90
25170;DHT22;13129;48.012;10.352;2023-06-05T15:53:41;23.10;57.80
25170;DHT22;13129;48.012;10.352;2023-06-05T15:56:07;23.00;58.00
25170;DHT22;13129;48.012;10.352;2023-06-05T15:58:33;23.00;57.70
25170;DHT22;13129;48.012;10.352;2023-06-05T16:00:59;23.00;57.90
25170;DHT22;13129;48.012;10.352;2023-06-05T16:03:26;23.20;58.40
25170;DHT22;13129;48.012;10.352;2023-06-05T16:05:52;23.50;58.10
25170;DHT22;13129;48.012;10.352;2023-06-05T16:08:18;23.70;57.90
25170;DHT22;13129;48.012;10.352;2023-06-05T16:10:47;23.80;58.00
25170;DHT22;13129;48.012;10.352;2023-06-05T16:13:12;23.90;58.30
25170;DHT22;13129;48.012;10.352;2023-06-05T16:15:39;24.00;57.80
25170;DHT22;13129;48.012;10.352;2023-06-05T16:18:07;24.20;57.40
25170;DHT22;13129;48.012;10.352;2023-06-05T16:20:32;24.30;57.70
25170;DHT22;13129;48.012;10.352;2023-06-05T16:22:58;24.30;57.10
25170;DHT22;13129;48.012;10.352;2023-06-05T16:25:25;24.20;56.20
25170;DHT22;13129;48.012;10.352;2023-06-05T16:27:50;23.90;55.30
25170;DHT22;13129;48.012;10.352;2023-06-05T16:30:16;23.80;55.80
25170;DHT22;13129;48.012;10.352;2023-06-05T16:32:42;23.50;57.50
25170;DHT22;13129;48.012;10.352;2023-06-05T16:35:08;23.10;61.70
25170;DHT22;13129;48.012;10.352;2023-06-05T16:37:34;22.80;65.50
25170;DHT22;13129;48.012;10.352;2023-06-05T16:40:00;22.50;68.10
25170;DHT22;13129;48.012;10.352;2023-06-05T16:42:26;22.20;70.10
25170;DHT22;13129;48.012;10.352;2023-06-05T16:44:53;22.00;72.00
25170;DHT22;13129;48.012;10.352;2023-06-05T16:47:19;21.70;73.40
25170;DHT22;13129;48.012;10.352;2023-06-05T16:49:45;21.50;74.30
25170;DHT22;13129;48.012;10.352;2023-06-05T16:52:10;21.30;74.90
25170;DHT22;13129;48.012;10.352;2023-06-05T16:54:36;21.00;76.20
25170;DHT22;13129;48.012;10.352;2023-06-05T16:57:02;20.80;78.60
25170;DHT22;13129;48.012;10.352;2023-06-05T16:59:29;20.50;80.00
25170;DHT22;13129;48.012;10.352;2023-06-05T17:01:55;20.30;82.60
25170;DHT22;13129;48.012;10.352;2023-06-05T17:04:20;20.20;83.80
25170;DHT22;13129;48.012;10.352;2023-06-05T17:06:46;20.10;84.20
25170;DHT22;13129;48.012;10.352;2023-06-05T17:09:12;20.00;84.80
25170;DHT22;13129;48.012;10.352;2023-06-05T17:11:38;19.90;86.20
25170;DHT22;13129;48.012;10.352;2023-06-05T17:14:04;19.80;87.40
25170;DHT22;13129;48.012;10.352;2023-06-05T17:16:30;19.60;88.20
25170;DHT22;13129;48.012;10.352;2023-06-05T17:18:57;19.50;88.60
25170;DHT22;13129;48.012;10.352;2023-06-05T17:21:23;19.50;88.80
25170;DHT22;13129;48.012;10.352;2023-06-05T17:23:49;19.40;89.10
25170;DHT22;13129;48.012;10.352;2023-06-05T17:26:14;19.40;88.80
25170;DHT22;13129;48.012;10.352;2023-06-05T17:28:41;19.30;88.90
25170;DHT22;13129;48.012;10.352;2023-06-05T17:31:08;19.20;89.20
25170;DHT22;13129;48.012;10.352;2023-06-05T17:33:34;19.20;89.40
25170;DHT22;13129;48.012;10.352;2023-06-05T17:36:00;19.20;89.60
25170;DHT22;13129;48.012;10.352;2023-06-05T17:38:25;19.10;89.40
25170;DHT22;13129;48.012;10.352;2023-06-05T17:40:51;19.10;89.80
25170;DHT22;13129;48.012;10.352;2023-06-05T17:43:17;19.00;89.20
25170;DHT22;13129;48.012;10.352;2023-06-05T17:45:43;19.00;88.90
25170;DHT22;13129;48.012;10.352;2023-06-05T17:48:09;18.90;88.20
25170;DHT22;13129;48.012;10.352;2023-06-05T17:50:35;19.00;87.60
25170;DHT22;13129;48.012;10.352;2023-06-05T17:53:01;18.90;87.00
25170;DHT22;13129;48.012;10.352;2023-06-05T17:55:27;18.90;85.80
25170;DHT22;13129;48.012;10.352;2023-06-05T17:57:53;18.90;84.60
25170;DHT22;13129;48.012;10.352;2023-06-05T18:00:23;18.80;83.30
25170;DHT22;13129;48.012;10.352;2023-06-05T18:02:49;18.80;83.10
25170;DHT22;13129;48.012;10.352;2023-06-05T18:05:15;18.80;82.80
25170;DHT22;13129;48.012;10.352;2023-06-05T18:07:41;18.60;83.90
25170;DHT22;13129;48.012;10.352;2023-06-05T18:10:07;18.40;82.90
25170;DHT22;13129;48.012;10.352;2023-06-05T18:12:33;18.20;82.80
25170;DHT22;13129;48.012;10.352;2023-06-05T18:14:59;18.00;80.80
25170;DHT22;13129;48.012;10.352;2023-06-05T18:17:25;17.80;79.80
25170;DHT22;13129;48.012;10.352;2023-06-05T18:19:51;17.60;80.10
25170;DHT22;13129;48.012;10.352;2023-06-05T18:22:17;17.40;80.50
25170;DHT22;13129;48.012;10.352;2023-06-05T18:24:43;17.20;81.70
25170;DHT22;13129;48.012;10.352;2023-06-05T18:27:09;16.90;84.50
25170;DHT22;13129;48.012;10.352;2023-06-05T18:29:35;16.60;86.80
25170;DHT22;13129;48.012;10.352;2023-06-05T18:32:00;16.10;90.30
25170;DHT22;13129;48.012;10.352;2023-06-05T18:34:27;15.60;91.80
25170;DHT22;13129;48.012;10.352;2023-06-05T18:36:53;15.20;92.90
25170;DHT22;13129;48.012;10.352;2023-06-05T18:39:18;15.00;93.80
25170;DHT22;13129;48.012;10.352;2023-06-05T18:41:45;14.80;94.60
25170;DHT22;13129;48.012;10.352;2023-06-05T18:44:11;14.70;96.00
25170;DHT22;13129;48.012;10.352;2023-06-05T18:46:37;14.70;97.60
25170;DHT22;13129;48.012;10.352;2023-06-05T18:49:03;14.70;99.70
25170;DHT22;13129;48.012;10.352;2023-06-05T18:51:28;14.70;99.90
25170;DHT22;13129;48.012;10.352;2023-06-05T18:53:54;14.80;99.90
25170;DHT22;13129;48.012;10.352;2023-06-05T18:56:20;14.80;99.90
25170;DHT22;13129;48.012;10.352;2023-06-05T18:58:51;14.90;99.90
25170;DHT22;13129;48.012;10.352;2023-06-05T19:01:16;15.00;99.90
25170;DHT22;13129;48.012;10.352;2023-06-05T19:03:42;15.10;99.90
25170;DHT22;13129;48.012;10.352;2023-06-05T19:06:08;15.20;99.90
25170;DHT22;13129;48.012;10.352;2023-06-05T19:08:34;15.20;99.90
25170;DHT22;13129;48.012;10.352;2023-06-05T19:11:00;15.20;99.90
25170;DHT22;13129;48.012;10.352;2023-06-05T19:13:26;15.20;99.90
25170;DHT22;13129;48.012;10.352;2023-06-05T19:15:53;15.20;99.90
25170;DHT22;13129;48.012;10.352;2023-06-05T19:18:18;15.20;99.90
25170;DHT22;13129;48.012;10.352;2023-06-05T19:20:44;15.10;99.90
25170;DHT22;13129;48.012;10.352;2023-06-05T19:23:10;15.10;99.90
25170;DHT22;13129;48.012;10.352;2023-06-05T19:25:35;15.00;99.90
25170;DHT22;13129;48.012;10.352;2023-06-05T19:28:01;15.00;99.90